sensor_id;sensor_type;location;lat;lon;timestamp;temperature;humidity
21522;DHT22;10922;45.572;10.002;2023-02-18T00:01:47;11.20;99.90
21522;DHT22;10922;45.572;10.002;2023-02-18T00:04:13;11.00;99.90
21522;DHT22;10922;45.572;10.002;2023-02-18T00:06:39;11.00;99.90
21522;DHT22;10922;45.572;10.002;2023-02-18T00:09:05;11.00;99.90
21522;DHT22;10922;45.572;10.002;2023-02-18T00:11:33;11.00;99.90
21522;DHT22;10922;45.572;10.002;2023-02-18T00:14:01;10.90;99.90
21522;DHT22;10922;45.572;10.002;2023-02-18T00:16:29;11.00;99.90
21522;DHT22;10922;45.572;10.002;2023-02-18T00:19:01;10.90;99.90
21522;DHT22;10922;45.572;10.002;2023-02-18T00:21:27;10.90;99.90
21522;DHT22;10922;45.572;10.002;2023-02-18T00:23:53;10.90;99.90
21522;DHT22;10922;45.572;10.002;2023-02-18T00:26:19;10.90;99.90
21522;DHT22;10922;45.572;10.002;2023-02-18T00:28:46;10.90;99.90
21522;DHT22;10922;45.572;10.002;2023-02-18T00:31:33;10.90;99.90
21522;DHT22;10922;45.572;10.002;2023-02-18T00:34:00;11.00;99.90
21522;DHT22;10922;45.572;10.002;2023-02-18T00:36:27;10.90;99.90
21522;DHT22;10922;45.572;10.002;2023-02-18T00:38:57;10.90;99.90
21522;DHT22;10922;45.572;10.002;2023-02-18T00:41:25;11.00;99.90
21522;DHT22;10922;45.572;10.002;2023-02-18T00:43:51;10.70;99.90
21522;DHT22;10922;45.572;10.002;2023-02-18T00:46:18;10.70;99.90
21522;DHT22;10922;45.572;10.002;2023-02-18T00:48:44;10.60;99.90
21522;DHT22;10922;45.572;10.002;2023-02-18T00:51:10;10.80;99.90
21522;DHT22;10922;45.572;10.002;2023-02-18T00:53:36;10.70;99.90
21522;DHT22;10922;45.572;10.002;2023-02-18T00:56:04;10.60;99.90
21522;DHT22;10922;45.572;10.002;2023-02-18T00:58:30;11.00;99.90
21522;DHT22;10922;45.572;10.002;2023-02-18T01:00:56;10.80;99.90
21522;DHT22;10922;45.572;10.002;2023-02-18T01:03:22;10.70;99.90
21522;DHT22;10922;45.572;10.002;2023-02-18T01:05:49;10.60;99.90
21522;DHT22;10922;45.572;10.002;2023-02-18T01:08:16;10.90;99.90
21522;DHT22;10922;45.572;10.002;2023-02-18T01:10:44;10.90;99.90
21522;DHT22;10922;45.572;10.002;2023-02-18T01:13:11;10.90;99.90
21522;DHT22;10922;45.572;10.002;2023-02-18T01:15:38;11.10;99.90
21522;DHT22;10922;45.572;10.002;2023-02-18T01:18:04;10.90;99.90
21522;DHT22;10922;45.572;10.002;2023-02-18T01:20:32;11.00;99.90
21522;DHT22;10922;45.572;10.002;2023-02-18T01:22:58;11.00;99.90
21522;DHT22;10922;45.572;10.002;2023-02-18T01:25:24;11.10;99.90
21522;DHT22;10922;45.572;10.002;2023-02-18T01:27:49;11.10;99.90
21522;DHT22;10922;45.572;10.002;2023-02-18T01:30:16;11.20;99.90
21522;DHT22;10922;45.572;10.002;2023-02-18T01:32:43;11.10;99.90
21522;DHT22;10922;45.572;10.002;2023-02-18T01:35:12;11.20;99.90
21522;DHT22;10922;45.572;10.002;2023-02-18T01:37:38;11.10;99.90
21522;DHT22;10922;45.572;10.002;2023-02-18T01:40:05;11.20;99.90
21522;DHT22;10922;45.572;10.002;2023-02-18T01:42:31;11.10;99.90
21522;DHT22;10922;45.572;10.002;2023-02-18T01:50:32;10.80;99.90
21522;DHT22;10922;45.572;10.002;2023-02-18T01:52:59;10.70;99.90
21522;DHT22;10922;45.572;10.002;2023-02-18T01:55:25;10.70;99.90
21522;DHT22;10922;45.572;10.002;2023-02-18T01:57:51;10.60;99.90
21522;DHT22;10922;45.572;10.002;2023-02-18T02:00:18;10.50;99.90
21522;DHT22;10922;45.572;10.002;2023-02-18T02:02:50;10.30;99.90
21522;DHT22;10922;45.572;10.002;2023-02-18T02:05:18;10.40;99.90
21522;DHT22;10922;45.572;10.002;2023-02-18T02:07:45;10.30;99.90
21522;DHT22;10922;45.572;10.002;2023-02-18T02:10:13;10.30;99.90
21522;DHT22;10922;45.572;10.002;2023-02-18T02:16:03;10.30;99.90
21522;DHT22;10922;45.572;10.002;2023-02-18T02:18:56;10.20;99.90
21522;DHT22;10922;45.572;10.002;2023-02-18T02:32:42;10.30;99.90
21522;DHT22;10922;45.572;10.002;2023-02-18T02:38:29;10.50;99.90
21522;DHT22;10922;45.572;10.002;2023-02-18T02:41:38;10.60;99.90
21522;DHT22;10922;45.572;10.002;2023-02-18T02:46:46;10.80;99.90
21522;DHT22;10922;45.572;10.002;2023-02-18T02:54:28;10.60;99.90
21522;DHT22;10922;45.572;10.002;2023-02-18T02:59:31;10.60;99.90
21522;DHT22;10922;45.572;10.002;2023-02-18T03:16:10;10.40;99.90
21522;DHT22;10922;45.572;10.002;2023-02-18T03:18:45;10.20;99.90
21522;DHT22;10922;45.572;10.002;2023-02-18T03:21:21;10.20;99.90
21522;DHT22;10922;45.572;10.002;2023-02-18T03:23:57;10.20;99.90
21522;DHT22;10922;45.572;10.002;2023-02-18T03:26:25;10.20;99.90
21522;DHT22;10922;45.572;10.002;2023-02-18T03:28:53;10.00;99.90
21522;DHT22;10922;45.572;10.002;2023-02-18T03:31:22;10.00;99.90
21522;DHT22;10922;45.572;10.002;2023-02-18T03:34:02;9.80;99.90
21522;DHT22;10922;45.572;10.002;2023-02-18T03:36:31;9.70;99.90
21522;DHT22;10922;45.572;10.002;2023-02-18T03:39:18;9.50;1.00
21522;DHT22;10922;45.572;10.002;2023-02-18T03:41:44;9.40;99.90
21522;DHT22;10922;45.572;10.002;2023-02-18T03:44:11;9.40;99.90
21522;DHT22;10922;45.572;10.002;2023-02-18T03:46:39;9.30;99.90
21522;DHT22;10922;45.572;10.002;2023-02-18T03:49:05;9.40;99.90
21522;DHT22;10922;45.572;10.002;2023-02-18T03:51:31;9.40;99.90
21522;DHT22;10922;45.572;10.002;2023-02-18T03:53:57;9.20;99.90
21522;DHT22;10922;45.572;10.002;2023-02-18T03:56:23;9.30;99.90
21522;DHT22;10922;45.572;10.002;2023-02-18T03:58:48;9.30;99.90
21522;DHT22;10922;45.572;10.002;2023-02-18T04:01:14;9.40;99.90
21522;DHT22;10922;45.572;10.002;2023-02-18T04:03:42;9.40;99.90
21522;DHT22;10922;45.572;10.002;2023-02-18T04:06:08;9.40;99.90
21522;DHT22;10922;45.572;10.002;2023-02-18T04:08:33;9.40;99.90
21522;DHT22;10922;45.572;10.002;2023-02-18T04:10:59;9.40;99.90
21522;DHT22;10922;45.572;10.002;2023-02-18T04:13:27;9.40;99.90
21522;DHT22;10922;45.572;10.002;2023-02-18T04:15:53;9.30;99.90
21522;DHT22;10922;45.572;10.002;2023-02-18T04:18:19;9.30;99.90
21522;DHT22;10922;45.572;10.002;2023-02-18T04:20:45;9.10;99.90
21522;DHT22;10922;45.572;10.002;2023-02-18T04:23:11;9.10;99.90
21522;DHT22;10922;45.572;10.002;2023-02-18T04:25:37;9.10;99.90
21522;DHT22;10922;45.572;10.002;2023-02-18T04:28:03;9.10;99.90
21522;DHT22;10922;45.572;10.002;2023-02-18T04:30:28;9.10;1.00
21522;DHT22;10922;45.572;10.002;2023-02-18T04:32:54;9.30;99.90
21522;DHT22;10922;45.572;10.002;2023-02-18T04:35:19;9.20;99.90
21522;DHT22;10922;45.572;10.002;2023-02-18T04:37:45;9.30;99.90
21522;DHT22;10922;45.572;10.002;2023-02-18T04:40:11;9.30;99.90
21522;DHT22;10922;45.572;10.002;2023-02-18T04:42:37;9.20;99.90
21522;DHT22;10922;45.572;10.002;2023-02-18T04:45:03;9.20;99.90
21522;DHT22;10922;45.572;10.002;2023-02-18T04:47:29;9.30;99.90
21522;DHT22;10922;45.572;10.002;2023-02-18T04:49:55;9.20;99.90
21522;DHT22;10922;45.572;10.002;2023-02-18T04:52:20;9.10;99.90
21522;DHT22;10922;45.572;10.002;2023-02-18T04:54:46;9.10;99.90
21522;DHT22;10922;45.572;10.002;2023-02-18T04:57:12;9.20;99.90
21522;DHT22;10922;45.572;10.002;2023-02-18T04:59:37;9.20;99.90
21522;DHT22;10922;45.572;10.002;2023-02-18T05:02:04;9.10;99.90
21522;DHT22;10922;45.572;10.002;2023-02-18T05:04:30;9.00;99.90
21522;DHT22;10922;45.572;10.002;2023-02-18T05:06:56;9.00;99.90
21522;DHT22;10922;45.572;10.002;2023-02-18T05:09:22;8.90;99.90
21522;DHT22;10922;45.572;10.002;2023-02-18T05:11:48;8.90;99.90
21522;DHT22;10922;45.572;10.002;2023-02-18T05:14:14;8.90;99.90
21522;DHT22;10922;45.572;10.002;2023-02-18T05:16:40;9.00;99.90
21522;DHT22;10922;45.572;10.002;2023-02-18T05:19:06;8.80;99.90
21522;DHT22;10922;45.572;10.002;2023-02-18T05:21:31;8.90;99.90
21522;DHT22;10922;45.572;10.002;2023-02-18T05:23:57;8.90;99.90
21522;DHT22;10922;45.572;10.002;2023-02-18T05:26:23;8.70;99.90
21522;DHT22;10922;45.572;10.002;2023-02-18T05:28:49;8.90;99.90
21522;DHT22;10922;45.572;10.002;2023-02-18T05:31:15;8.80;99.90
21522;DHT22;10922;45.572;10.002;2023-02-18T05:33:40;8.80;99.90
21522;DHT22;10922;45.572;10.002;2023-02-18T05:36:06;8.80;1.00
21522;DHT22;10922;45.572;10.002;2023-02-18T05:38:32;8.80;1.00
21522;DHT22;10922;45.572;10.002;2023-02-18T05:40:58;8.80;1.00
21522;DHT22;10922;45.572;10.002;2023-02-18T05:43:24;8.80;99.90
21522;DHT22;10922;45.572;10.002;2023-02-18T05:45:49;8.70;99.90
21522;DHT22;10922;45.572;10.002;2023-02-18T05:48:15;8.70;1.00
21522;DHT22;10922;45.572;10.002;2023-02-18T05:50:41;8.90;1.00
21522;DHT22;10922;45.572;10.002;2023-02-18T05:53:06;9.00;1.00
21522;DHT22;10922;45.572;10.002;2023-02-18T05:55:32;9.00;1.00
21522;DHT22;10922;45.572;10.002;2023-02-18T05:58:02;9.00;1.00
21522;DHT22;10922;45.572;10.002;2023-02-18T06:00:28;8.90;99.90
21522;DHT22;10922;45.572;10.002;2023-02-18T06:02:56;8.90;99.90
21522;DHT22;10922;45.572;10.002;2023-02-18T06:05:22;8.90;99.90
21522;DHT22;10922;45.572;10.002;2023-02-18T06:07:47;8.80;99.90
21522;DHT22;10922;45.572;10.002;2023-02-18T06:10:13;8.90;1.00
21522;DHT22;10922;45.572;10.002;2023-02-18T06:12:39;9.00;1.00
21522;DHT22;10922;45.572;10.002;2023-02-18T06:15:05;8.90;1.00
21522;DHT22;10922;45.572;10.002;2023-02-18T06:17:30;8.90;1.00
21522;DHT22;10922;45.572;10.002;2023-02-18T06:19:56;8.90;1.00
21522;DHT22;10922;45.572;10.002;2023-02-18T06:22:22;9.00;1.00
21522;DHT22;10922;45.572;10.002;2023-02-18T06:24:47;9.00;99.90
21522;DHT22;10922;45.572;10.002;2023-02-18T06:27:13;9.00;99.90
21522;DHT22;10922;45.572;10.002;2023-02-18T06:29:39;9.10;1.00
21522;DHT22;10922;45.572;10.002;2023-02-18T06:32:04;9.30;99.90
21522;DHT22;10922;45.572;10.002;2023-02-18T06:34:30;9.40;99.90
21522;DHT22;10922;45.572;10.002;2023-02-18T06:36:56;9.40;99.90
21522;DHT22;10922;45.572;10.002;2023-02-18T06:39:21;9.40;99.90
21522;DHT22;10922;45.572;10.002;2023-02-18T06:41:47;9.50;99.90
21522;DHT22;10922;45.572;10.002;2023-02-18T06:44:12;9.40;1.00
21522;DHT22;10922;45.572;10.002;2023-02-18T06:46:41;9.60;99.90
21522;DHT22;10922;45.572;10.002;2023-02-18T06:49:06;9.60;99.90
21522;DHT22;10922;45.572;10.002;2023-02-18T06:51:32;9.70;99.90
21522;DHT22;10922;45.572;10.002;2023-02-18T06:53:58;9.50;99.90
21522;DHT22;10922;45.572;10.002;2023-02-18T06:56:24;9.70;99.90
21522;DHT22;10922;45.572;10.002;2023-02-18T06:58:49;9.70;99.90
21522;DHT22;10922;45.572;10.002;2023-02-18T07:01:15;9.70;1.00
21522;DHT22;10922;45.572;10.002;2023-02-18T07:03:41;9.50;99.90
21522;DHT22;10922;45.572;10.002;2023-02-18T07:06:06;9.50;99.90
21522;DHT22;10922;45.572;10.002;2023-02-18T07:08:32;9.20;99.90
21522;DHT22;10922;45.572;10.002;2023-02-18T07:11:00;9.50;99.90
21522;DHT22;10922;45.572;10.002;2023-02-18T07:13:26;9.50;99.90
21522;DHT22;10922;45.572;10.002;2023-02-18T07:15:52;9.60;99.90
21522;DHT22;10922;45.572;10.002;2023-02-18T07:18:17;9.90;99.90
21522;DHT22;10922;45.572;10.002;2023-02-18T07:20:43;9.80;99.90
21522;DHT22;10922;45.572;10.002;2023-02-18T07:23:09;9.90;99.90
21522;DHT22;10922;45.572;10.002;2023-02-18T07:25:35;10.00;1.00
21522;DHT22;10922;45.572;10.002;2023-02-18T07:28:01;10.10;99.90
21522;DHT22;10922;45.572;10.002;2023-02-18T07:30:27;10.10;99.90
21522;DHT22;10922;45.572;10.002;2023-02-18T07:32:53;10.00;99.90
21522;DHT22;10922;45.572;10.002;2023-02-18T07:35:18;9.80;99.90
21522;DHT22;10922;45.572;10.002;2023-02-18T07:37:50;9.90;99.90
21522;DHT22;10922;45.572;10.002;2023-02-18T07:40:18;9.80;99.90
21522;DHT22;10922;45.572;10.002;2023-02-18T07:42:44;9.80;99.90
21522;DHT22;10922;45.572;10.002;2023-02-18T07:45:11;9.80;99.90
21522;DHT22;10922;45.572;10.002;2023-02-18T07:47:37;9.70;99.90
21522;DHT22;10922;45.572;10.002;2023-02-18T07:50:04;9.80;1.00
21522;DHT22;10922;45.572;10.002;2023-02-18T07:52:30;9.90;99.90
21522;DHT22;10922;45.572;10.002;2023-02-18T07:54:56;10.00;99.90
21522;DHT22;10922;45.572;10.002;2023-02-18T07:57:21;10.10;99.90
21522;DHT22;10922;45.572;10.002;2023-02-18T07:59:47;10.10;1.00
21522;DHT22;10922;45.572;10.002;2023-02-18T08:02:18;10.10;1.00
21522;DHT22;10922;45.572;10.002;2023-02-18T08:04:44;10.20;99.90
21522;DHT22;10922;45.572;10.002;2023-02-18T08:07:17;10.30;99.90
21522;DHT22;10922;45.572;10.002;2023-02-18T08:09:43;10.40;99.90
21522;DHT22;10922;45.572;10.002;2023-02-18T08:12:09;10.40;1.00
21522;DHT22;10922;45.572;10.002;2023-02-18T08:14:35;10.40;99.90
21522;DHT22;10922;45.572;10.002;2023-02-18T08:17:00;10.40;99.90
21522;DHT22;10922;45.572;10.002;2023-02-18T08:19:26;10.40;99.90
21522;DHT22;10922;45.572;10.002;2023-02-18T08:21:52;10.60;99.90
21522;DHT22;10922;45.572;10.002;2023-02-18T08:24:17;10.60;99.90
21522;DHT22;10922;45.572;10.002;2023-02-18T08:26:43;10.50;99.90
21522;DHT22;10922;45.572;10.002;2023-02-18T08:29:09;10.50;99.90
21522;DHT22;10922;45.572;10.002;2023-02-18T08:31:35;10.60;99.90
21522;DHT22;10922;45.572;10.002;2023-02-18T08:34:01;10.60;99.90
21522;DHT22;10922;45.572;10.002;2023-02-18T08:36:28;10.80;1.00
21522;DHT22;10922;45.572;10.002;2023-02-18T08:38:55;10.70;1.00
21522;DHT22;10922;45.572;10.002;2023-02-18T08:41:21;11.00;1.00
21522;DHT22;10922;45.572;10.002;2023-02-18T08:43:47;10.80;1.00
21522;DHT22;10922;45.572;10.002;2023-02-18T08:46:14;11.20;1.00
21522;DHT22;10922;45.572;10.002;2023-02-18T08:48:40;11.30;99.90
21522;DHT22;10922;45.572;10.002;2023-02-18T08:53:38;11.40;99.90
21522;DHT22;10922;45.572;10.002;2023-02-18T08:56:06;11.50;99.90
21522;DHT22;10922;45.572;10.002;2023-02-18T08:58:32;11.50;99.90
21522;DHT22;10922;45.572;10.002;2023-02-18T09:01:03;11.60;99.90
21522;DHT22;10922;45.572;10.002;2023-02-18T09:03:28;11.50;99.90
21522;DHT22;10922;45.572;10.002;2023-02-18T09:05:55;11.50;99.90
21522;DHT22;10922;45.572;10.002;2023-02-18T09:08:21;11.60;99.90
21522;DHT22;10922;45.572;10.002;2023-02-18T09:10:47;11.50;99.90
21522;DHT22;10922;45.572;10.002;2023-02-18T09:13:12;11.30;99.90
21522;DHT22;10922;45.572;10.002;2023-02-18T09:15:38;11.60;99.90
21522;DHT22;10922;45.572;10.002;2023-02-18T09:18:03;11.60;99.90
21522;DHT22;10922;45.572;10.002;2023-02-18T09:20:29;11.50;99.90
21522;DHT22;10922;45.572;10.002;2023-02-18T09:22:55;11.40;99.90
21522;DHT22;10922;45.572;10.002;2023-02-18T09:25:22;11.60;99.90
21522;DHT22;10922;45.572;10.002;2023-02-18T09:27:48;11.30;99.90
21522;DHT22;10922;45.572;10.002;2023-02-18T09:30:13;11.50;99.90
21522;DHT22;10922;45.572;10.002;2023-02-18T09:32:39;11.50;99.90
21522;DHT22;10922;45.572;10.002;2023-02-18T09:35:05;11.50;99.90
21522;DHT22;10922;45.572;10.002;2023-02-18T09:37:30;11.50;99.90
21522;DHT22;10922;45.572;10.002;2023-02-18T09:39:56;11.60;99.90
21522;DHT22;10922;45.572;10.002;2023-02-18T09:42:28;11.70;99.90
21522;DHT22;10922;45.572;10.002;2023-02-18T09:44:59;11.70;99.90
21522;DHT22;10922;45.572;10.002;2023-02-18T09:50:17;11.50;99.90
21522;DHT22;10922;45.572;10.002;2023-02-18T09:52:44;11.60;99.90
21522;DHT22;10922;45.572;10.002;2023-02-18T09:55:38;11.90;99.90
21522;DHT22;10922;45.572;10.002;2023-02-18T09:58:17;12.20;99.90
21522;DHT22;10922;45.572;10.002;2023-02-18T10:01:05;12.00;99.90
21522;DHT22;10922;45.572;10.002;2023-02-18T10:03:36;12.10;99.90
21522;DHT22;10922;45.572;10.002;2023-02-18T10:06:28;12.00;99.90
21522;DHT22;10922;45.572;10.002;2023-02-18T10:08:52;12.20;99.90
21522;DHT22;10922;45.572;10.002;2023-02-18T10:11:30;12.20;99.90
21522;DHT22;10922;45.572;10.002;2023-02-18T10:13:58;12.00;99.90
21522;DHT22;10922;45.572;10.002;2023-02-18T10:16:26;12.10;99.90
21522;DHT22;10922;45.572;10.002;2023-02-18T10:18:56;12.00;99.90
21522;DHT22;10922;45.572;10.002;2023-02-18T10:21:33;12.10;99.90
21522;DHT22;10922;45.572;10.002;2023-02-18T10:24:30;12.00;99.90
21522;DHT22;10922;45.572;10.002;2023-02-18T10:26:57;11.90;99.90
21522;DHT22;10922;45.572;10.002;2023-02-18T10:29:24;12.10;99.90
21522;DHT22;10922;45.572;10.002;2023-02-18T10:34:53;12.00;99.90
21522;DHT22;10922;45.572;10.002;2023-02-18T10:37:35;12.10;99.90
21522;DHT22;10922;45.572;10.002;2023-02-18T10:42:53;12.20;99.90
21522;DHT22;10922;45.572;10.002;2023-02-18T10:51:00;12.60;99.90
21522;DHT22;10922;45.572;10.002;2023-02-18T10:53:36;12.70;99.90
21522;DHT22;10922;45.572;10.002;2023-02-18T10:56:05;12.50;99.90
21522;DHT22;10922;45.572;10.002;2023-02-18T10:58:33;12.30;99.90
21522;DHT22;10922;45.572;10.002;2023-02-18T11:01:05;12.60;99.90
21522;DHT22;10922;45.572;10.002;2023-02-18T11:04:02;12.60;99.90
21522;DHT22;10922;45.572;10.002;2023-02-18T11:06:30;12.60;99.90
21522;DHT22;10922;45.572;10.002;2023-02-18T11:08:56;12.60;99.90
21522;DHT22;10922;45.572;10.002;2023-02-18T11:14:01;12.80;99.90
21522;DHT22;10922;45.572;10.002;2023-02-18T11:16:41;13.00;99.90
21522;DHT22;10922;45.572;10.002;2023-02-18T11:19:33;12.90;99.90
21522;DHT22;10922;45.572;10.002;2023-02-18T11:22:13;12.90;99.90
21522;DHT22;10922;45.572;10.002;2023-02-18T11:24:40;13.00;99.90
21522;DHT22;10922;45.572;10.002;2023-02-18T11:27:20;13.10;99.90
21522;DHT22;10922;45.572;10.002;2023-02-18T11:29:50;13.10;99.90
21522;DHT22;10922;45.572;10.002;2023-02-18T11:32:17;13.00;99.90
21522;DHT22;10922;45.572;10.002;2023-02-18T11:34:43;13.20;99.90
21522;DHT22;10922;45.572;10.002;2023-02-18T11:37:14;13.30;99.90
21522;DHT22;10922;45.572;10.002;2023-02-18T11:39:44;13.50;1.00
21522;DHT22;10922;45.572;10.002;2023-02-18T11:42:14;13.50;99.90
21522;DHT22;10922;45.572;10.002;2023-02-18T11:45:01;13.40;99.90
21522;DHT22;10922;45.572;10.002;2023-02-18T11:47:32;13.60;99.90
21522;DHT22;10922;45.572;10.002;2023-02-18T11:57:59;13.70;99.90
21522;DHT22;10922;45.572;10.002;2023-02-18T12:03:02;14.10;99.90
21522;DHT22;10922;45.572;10.002;2023-02-18T12:05:31;14.00;99.90
21522;DHT22;10922;45.572;10.002;2023-02-18T12:08:23;13.80;99.90
21522;DHT22;10922;45.572;10.002;2023-02-18T12:10:57;14.00;99.90
21522;DHT22;10922;45.572;10.002;2023-02-18T12:13:47;14.00;99.90
21522;DHT22;10922;45.572;10.002;2023-02-18T12:37:52;17.10;99.90
21522;DHT22;10922;45.572;10.002;2023-02-18T13:05:14;17.80;99.90
21522;DHT22;10922;45.572;10.002;2023-02-18T13:15:55;18.20;99.90
21522;DHT22;10922;45.572;10.002;2023-02-18T13:21:19;17.30;99.90
21522;DHT22;10922;45.572;10.002;2023-02-18T13:24:11;18.80;99.90
21522;DHT22;10922;45.572;10.002;2023-02-18T13:26:38;18.10;99.90
21522;DHT22;10922;45.572;10.002;2023-02-18T13:34:31;17.10;99.90
21522;DHT22;10922;45.572;10.002;2023-02-18T13:37:10;16.60;99.90
21522;DHT22;10922;45.572;10.002;2023-02-18T13:39:51;17.10;99.90
21522;DHT22;10922;45.572;10.002;2023-02-18T13:42:24;17.40;99.90
21522;DHT22;10922;45.572;10.002;2023-02-18T13:47:42;17.90;99.90
21522;DHT22;10922;45.572;10.002;2023-02-18T13:53:11;17.30;99.90
21522;DHT22;10922;45.572;10.002;2023-02-18T14:03:56;18.50;99.90
21522;DHT22;10922;45.572;10.002;2023-02-18T14:14:36;18.90;99.90
21522;DHT22;10922;45.572;10.002;2023-02-18T14:19:52;19.00;99.90
21522;DHT22;10922;45.572;10.002;2023-02-18T14:25:12;17.50;99.90
21522;DHT22;10922;45.572;10.002;2023-02-18T14:27:41;17.70;99.90
21522;DHT22;10922;45.572;10.002;2023-02-18T14:32:44;17.20;99.90
21522;DHT22;10922;45.572;10.002;2023-02-18T14:35:30;17.20;99.90
21522;DHT22;10922;45.572;10.002;2023-02-18T14:44:06;17.70;99.90
21522;DHT22;10922;45.572;10.002;2023-02-18T14:46:38;17.50;99.90
21522;DHT22;10922;45.572;10.002;2023-02-18T14:49:51;18.00;99.90
21522;DHT22;10922;45.572;10.002;2023-02-18T14:54:52;18.10;99.90
21522;DHT22;10922;45.572;10.002;2023-02-18T14:57:19;17.40;99.90
21522;DHT22;10922;45.572;10.002;2023-02-18T14:59:48;17.10;99.90
21522;DHT22;10922;45.572;10.002;2023-02-18T15:02:25;17.50;99.90
21522;DHT22;10922;45.572;10.002;2023-02-18T15:05:17;17.30;99.90
21522;DHT22;10922;45.572;10.002;2023-02-18T15:07:56;17.00;99.90
21522;DHT22;10922;45.572;10.002;2023-02-18T15:10:45;16.90;99.90
21522;DHT22;10922;45.572;10.002;2023-02-18T15:13:34;17.20;99.90
21522;DHT22;10922;45.572;10.002;2023-02-18T15:16:11;17.30;99.90
21522;DHT22;10922;45.572;10.002;2023-02-18T15:18:53;17.00;99.90
21522;DHT22;10922;45.572;10.002;2023-02-18T15:21:26;16.90;99.90
21522;DHT22;10922;45.572;10.002;2023-02-18T15:23:53;16.70;99.90
21522;DHT22;10922;45.572;10.002;2023-02-18T15:26:20;16.70;99.90
21522;DHT22;10922;45.572;10.002;2023-02-18T15:29:17;16.70;99.90
21522;DHT22;10922;45.572;10.002;2023-02-18T15:31:46;16.90;99.90
21522;DHT22;10922;45.572;10.002;2023-02-18T15:34:32;17.10;99.90
21522;DHT22;10922;45.572;10.002;2023-02-18T15:36:59;16.70;99.90
21522;DHT22;10922;45.572;10.002;2023-02-18T15:39:26;16.80;99.90
21522;DHT22;10922;45.572;10.002;2023-02-18T15:41:57;16.90;99.90
21522;DHT22;10922;45.572;10.002;2023-02-18T15:44:29;16.70;99.90
21522;DHT22;10922;45.572;10.002;2023-02-18T15:47:02;16.40;99.90
21522;DHT22;10922;45.572;10.002;2023-02-18T15:49:29;16.50;99.90
21522;DHT22;10922;45.572;10.002;2023-02-18T15:51:58;16.40;99.90
21522;DHT22;10922;45.572;10.002;2023-02-18T15:54:24;16.50;99.90
21522;DHT22;10922;45.572;10.002;2023-02-18T15:56:53;17.00;99.90
21522;DHT22;10922;45.572;10.002;2023-02-18T15:59:20;16.50;99.90
21522;DHT22;10922;45.572;10.002;2023-02-18T16:04:20;16.20;99.90
21522;DHT22;10922;45.572;10.002;2023-02-18T16:06:52;16.90;99.90
21522;DHT22;10922;45.572;10.002;2023-02-18T16:09:35;16.70;99.90
21522;DHT22;10922;45.572;10.002;2023-02-18T16:12:05;17.00;99.90
21522;DHT22;10922;45.572;10.002;2023-02-18T16:14:48;17.00;99.90
21522;DHT22;10922;45.572;10.002;2023-02-18T16:17:20;16.60;99.90
21522;DHT22;10922;45.572;10.002;2023-02-18T16:19:59;16.70;99.90
21522;DHT22;10922;45.572;10.002;2023-02-18T16:22:41;16.80;99.90
21522;DHT22;10922;45.572;10.002;2023-02-18T16:25:17;16.50;99.90
21522;DHT22;10922;45.572;10.002;2023-02-18T16:30:27;16.70;99.90
21522;DHT22;10922;45.572;10.002;2023-02-18T16:32:53;15.90;99.90
21522;DHT22;10922;45.572;10.002;2023-02-18T16:35:21;16.30;99.90
21522;DHT22;10922;45.572;10.002;2023-02-18T16:37:47;16.00;99.90
21522;DHT22;10922;45.572;10.002;2023-02-18T16:43:23;15.90;99.90
21522;DHT22;10922;45.572;10.002;2023-02-18T16:45:50;15.90;99.90
21522;DHT22;10922;45.572;10.002;2023-02-18T16:48:30;15.80;99.90
21522;DHT22;10922;45.572;10.002;2023-02-18T16:50:58;15.80;99.90
21522;DHT22;10922;45.572;10.002;2023-02-18T16:53:24;15.90;99.90
21522;DHT22;10922;45.572;10.002;2023-02-18T16:55:50;15.70;99.90
21522;DHT22;10922;45.572;10.002;2023-02-18T16:58:17;15.60;99.90
21522;DHT22;10922;45.572;10.002;2023-02-18T17:00:44;15.50;99.90
21522;DHT22;10922;45.572;10.002;2023-02-18T17:03:11;15.60;99.90
21522;DHT22;10922;45.572;10.002;2023-02-18T17:05:37;15.50;99.90
21522;DHT22;10922;45.572;10.002;2023-02-18T17:08:15;15.60;99.90
21522;DHT22;10922;45.572;10.002;2023-02-18T17:10:44;15.30;99.90
21522;DHT22;10922;45.572;10.002;2023-02-18T17:13:24;15.20;99.90
21522;DHT22;10922;45.572;10.002;2023-02-18T17:15:52;15.30;99.90
21522;DHT22;10922;45.572;10.002;2023-02-18T17:18:18;15.60;99.90
21522;DHT22;10922;45.572;10.002;2023-02-18T17:20:45;15.50;99.90
21522;DHT22;10922;45.572;10.002;2023-02-18T17:23:18;15.50;99.90
21522;DHT22;10922;45.572;10.002;2023-02-18T17:25:46;15.30;99.90
21522;DHT22;10922;45.572;10.002;2023-02-18T17:28:16;15.30;99.90
21522;DHT22;10922;45.572;10.002;2023-02-18T17:30:49;15.50;99.90
21522;DHT22;10922;45.572;10.002;2023-02-18T17:33:17;15.30;99.90
21522;DHT22;10922;45.572;10.002;2023-02-18T17:35:44;15.20;99.90
21522;DHT22;10922;45.572;10.002;2023-02-18T17:38:15;15.10;99.90
21522;DHT22;10922;45.572;10.002;2023-02-18T17:40:42;15.10;99.90
21522;DHT22;10922;45.572;10.002;2023-02-18T17:43:12;15.20;99.90
21522;DHT22;10922;45.572;10.002;2023-02-18T17:45:52;15.30;99.90
21522;DHT22;10922;45.572;10.002;2023-02-18T17:48:18;15.30;99.90
21522;DHT22;10922;45.572;10.002;2023-02-18T17:50:44;15.10;99.90
21522;DHT22;10922;45.572;10.002;2023-02-18T17:53:13;14.90;99.90
21522;DHT22;10922;45.572;10.002;2023-02-18T17:55:40;15.00;99.90
21522;DHT22;10922;45.572;10.002;2023-02-18T17:58:07;15.00;99.90
21522;DHT22;10922;45.572;10.002;2023-02-18T18:00:37;15.10;99.90
21522;DHT22;10922;45.572;10.002;2023-02-18T18:03:03;15.20;99.90
21522;DHT22;10922;45.572;10.002;2023-02-18T18:05:38;15.20;99.90
21522;DHT22;10922;45.572;10.002;2023-02-18T18:08:06;15.00;99.90
21522;DHT22;10922;45.572;10.002;2023-02-18T18:10:35;14.90;99.90
21522;DHT22;10922;45.572;10.002;2023-02-18T18:13:17;14.50;99.90
21522;DHT22;10922;45.572;10.002;2023-02-18T18:15:43;14.30;99.90
21522;DHT22;10922;45.572;10.002;2023-02-18T18:18:10;14.00;99.90
21522;DHT22;10922;45.572;10.002;2023-02-18T18:20:37;13.90;99.90
21522;DHT22;10922;45.572;10.002;2023-02-18T18:23:05;13.70;99.90
21522;DHT22;10922;45.572;10.002;2023-02-18T18:25:37;13.50;99.90
21522;DHT22;10922;45.572;10.002;2023-02-18T18:28:04;13.40;99.90
21522;DHT22;10922;45.572;10.002;2023-02-18T18:30:32;13.50;99.90
21522;DHT22;10922;45.572;10.002;2023-02-18T18:33:00;13.40;99.90
21522;DHT22;10922;45.572;10.002;2023-02-18T18:35:30;13.20;99.90
21522;DHT22;10922;45.572;10.002;2023-02-18T18:37:56;13.20;99.90
21522;DHT22;10922;45.572;10.002;2023-02-18T18:40:24;13.20;99.90
21522;DHT22;10922;45.572;10.002;2023-02-18T18:42:52;13.10;99.90